sensor_id;sensor_type;location;lat;lon;timestamp;P1;durP1;ratioP1;P2;durP2;ratioP2
22017;SDS011;11173;51.050;7.108;2023-03-13T00:01:51;0.88;;;0.52;;
22017;SDS011;11173;51.050;7.108;2023-03-13T00:11:52;1.05;;;0.63;;
22017;SDS011;11173;51.050;7.108;2023-03-13T00:21:52;2.30;;;0.70;;
22017;SDS011;11173;51.050;7.108;2023-03-13T00:31:52;1.67;;;0.50;;
22017;SDS011;11173;51.050;7.108;2023-03-13T00:41:53;1.80;;;0.70;;
22017;SDS011;11173;51.050;7.108;2023-03-13T00:51:53;1.35;;;0.60;;
22017;SDS011;11173;51.050;7.108;2023-03-13T01:01:53;1.23;;;0.50;;
22017;SDS011;11173;51.050;7.108;2023-03-13T01:11:53;1.98;;;0.70;;
22017;SDS011;11173;51.050;7.108;2023-03-13T01:21:54;1.98;;;0.85;;
22017;SDS011;11173;51.050;7.108;2023-03-13T01:31:54;1.35;;;0.68;;
22017;SDS011;11173;51.050;7.108;2023-03-13T01:41:54;1.10;;;0.68;;
22017;SDS011;11173;51.050;7.108;2023-03-13T01:51:57;3.13;;;0.70;;
22017;SDS011;11173;51.050;7.108;2023-03-13T02:01:59;1.98;;;0.75;;
22017;SDS011;11173;51.050;7.108;2023-03-13T02:12:13;0.73;;;0.60;;
22017;SDS011;11173;51.050;7.108;2023-03-13T02:32:17;1.33;;;0.75;;
22017;SDS011;11173;51.050;7.108;2023-03-13T02:42:18;0.73;;;0.43;;
22017;SDS011;11173;51.050;7.108;2023-03-13T02:52:21;0.45;;;0.40;;
22017;SDS011;11173;51.050;7.108;2023-03-13T03:02:24;0.50;;;0.40;;
22017;SDS011;11173;51.050;7.108;2023-03-13T03:12:24;0.47;;;0.40;;
22017;SDS011;11173;51.050;7.108;2023-03-13T03:22:24;0.45;;;0.30;;
22017;SDS011;11173;51.050;7.108;2023-03-13T03:32:25;0.30;;;0.30;;
22017;SDS011;11173;51.050;7.108;2023-03-13T03:42:25;0.40;;;0.40;;
22017;SDS011;11173;51.050;7.108;2023-03-13T03:52:25;0.40;;;0.30;;
22017;SDS011;11173;51.050;7.108;2023-03-13T04:02:26;0.65;;;0.20;;
22017;SDS011;11173;51.050;7.108;2023-03-13T04:12:26;0.20;;;0.20;;
22017;SDS011;11173;51.050;7.108;2023-03-13T04:22:26;0.30;;;0.30;;
22017;SDS011;11173;51.050;7.108;2023-03-13T04:32:26;0.20;;;0.20;;
22017;SDS011;11173;51.050;7.108;2023-03-13T04:42:27;0.10;;;0.10;;
22017;SDS011;11173;51.050;7.108;2023-03-13T04:52:27;0.10;;;0.10;;
22017;SDS011;11173;51.050;7.108;2023-03-13T05:02:27;0.20;;;0.20;;
22017;SDS011;11173;51.050;7.108;2023-03-13T05:12:27;0.10;;;0.10;;
22017;SDS011;11173;51.050;7.108;2023-03-13T05:22:28;0.10;;;0.10;;
22017;SDS011;11173;51.050;7.108;2023-03-13T05:32:28;0.00;;;0.00;;
22017;SDS011;11173;51.050;7.108;2023-03-13T05:42:28;0.10;;;0.10;;
22017;SDS011;11173;51.050;7.108;2023-03-13T05:52:28;0.10;;;0.10;;
22017;SDS011;11173;51.050;7.108;2023-03-13T06:02:29;0.10;;;0.10;;
22017;SDS011;11173;51.050;7.108;2023-03-13T06:12:29;0.05;;;0.05;;
22017;SDS011;11173;51.050;7.108;2023-03-13T06:22:30;0.10;;;0.10;;
22017;SDS011;11173;51.050;7.108;2023-03-13T06:32:30;0.10;;;0.10;;
22017;SDS011;11173;51.050;7.108;2023-03-13T06:42:30;0.10;;;0.10;;
22017;SDS011;11173;51.050;7.108;2023-03-13T06:52:31;0.20;;;0.20;;
22017;SDS011;11173;51.050;7.108;2023-03-13T07:02:31;0.10;;;0.10;;
22017;SDS011;11173;51.050;7.108;2023-03-13T07:12:33;0.20;;;0.20;;
22017;SDS011;11173;51.050;7.108;2023-03-13T07:22:33;0.10;;;0.10;;
22017;SDS011;11173;51.050;7.108;2023-03-13T07:32:33;0.40;;;0.40;;
22017;SDS011;11173;51.050;7.108;2023-03-13T07:42:34;0.38;;;0.38;;
22017;SDS011;11173;51.050;7.108;2023-03-13T07:52:34;0.52;;;0.43;;
22017;SDS011;11173;51.050;7.108;2023-03-13T08:02:34;0.65;;;0.50;;
22017;SDS011;11173;51.050;7.108;2023-03-13T08:12:34;1.02;;;0.50;;
22017;SDS011;11173;51.050;7.108;2023-03-13T08:22:35;0.88;;;0.60;;
22017;SDS011;11173;51.050;7.108;2023-03-13T08:32:37;0.70;;;0.50;;
22017;SDS011;11173;51.050;7.108;2023-03-13T08:42:37;1.13;;;0.55;;
22017;SDS011;11173;51.050;7.108;2023-03-13T08:52:38;1.45;;;0.60;;
22017;SDS011;11173;51.050;7.108;2023-03-13T09:02:38;1.23;;;0.90;;
22017;SDS011;11173;51.050;7.108;2023-03-13T09:12:38;1.10;;;0.80;;
22017;SDS011;11173;51.050;7.108;2023-03-13T09:22:38;1.05;;;0.60;;
22017;SDS011;11173;51.050;7.108;2023-03-13T09:32:39;1.42;;;0.70;;
22017;SDS011;11173;51.050;7.108;2023-03-13T09:42:46;1.00;;;0.60;;
22017;SDS011;11173;51.050;7.108;2023-03-13T09:52:48;1.40;;;0.65;;
22017;SDS011;11173;51.050;7.108;2023-03-13T10:02:53;0.77;;;0.60;;
22017;SDS011;11173;51.050;7.108;2023-03-13T10:12:56;0.63;;;0.50;;
22017;SDS011;11173;51.050;7.108;2023-03-13T10:23:06;0.38;;;0.38;;
22017;SDS011;11173;51.050;7.108;2023-03-13T11:03:30;0.30;;;0.30;;
22017;SDS011;11173;51.050;7.108;2023-03-13T11:13:34;0.38;;;0.30;;
22017;SDS011;11173;51.050;7.108;2023-03-13T11:23:42;0.20;;;0.20;;
22017;SDS011;11173;51.050;7.108;2023-03-13T11:33:46;0.45;;;0.30;;
22017;SDS011;11173;51.050;7.108;2023-03-13T12:14:52;0.17;;;0.10;;
22017;SDS011;11173;51.050;7.108;2023-03-13T12:24:59;0.63;;;0.25;;
22017;SDS011;11173;51.050;7.108;2023-03-13T12:45:05;0.30;;;0.30;;
22017;SDS011;11173;51.050;7.108;2023-03-13T13:05:25;0.23;;;0.20;;
22017;SDS011;11173;51.050;7.108;2023-03-13T13:15:25;0.10;;;0.10;;
22017;SDS011;11173;51.050;7.108;2023-03-13T13:25:31;0.28;;;0.28;;
22017;SDS011;11173;51.050;7.108;2023-03-13T13:35:35;0.30;;;0.30;;
22017;SDS011;11173;51.050;7.108;2023-03-13T13:45:36;0.20;;;0.20;;
22017;SDS011;11173;51.050;7.108;2023-03-13T13:55:40;2.03;;;0.57;;
22017;SDS011;11173;51.050;7.108;2023-03-13T14:05:41;0.60;;;0.30;;
22017;SDS011;11173;51.050;7.108;2023-03-13T14:15:44;0.70;;;0.40;;
22017;SDS011;11173;51.050;7.108;2023-03-13T14:25:48;0.63;;;0.40;;
22017;SDS011;11173;51.050;7.108;2023-03-13T14:35:48;0.20;;;0.20;;
22017;SDS011;11173;51.050;7.108;2023-03-13T14:45:49;0.28;;;0.28;;
22017;SDS011;11173;51.050;7.108;2023-03-13T14:56:07;0.30;;;0.27;;
22017;SDS011;11173;51.050;7.108;2023-03-13T15:16:13;0.10;;;0.10;;
22017;SDS011;11173;51.050;7.108;2023-03-13T15:26:13;0.30;;;0.30;;
22017;SDS011;11173;51.050;7.108;2023-03-13T15:36:13;0.30;;;0.30;;
22017;SDS011;11173;51.050;7.108;2023-03-13T15:46:14;0.85;;;0.25;;
22017;SDS011;11173;51.050;7.108;2023-03-13T15:56:15;1.42;;;0.20;;
22017;SDS011;11173;51.050;7.108;2023-03-13T16:06:16;0.40;;;0.20;;
22017;SDS011;11173;51.050;7.108;2023-03-13T16:16:22;1.63;;;0.60;;
22017;SDS011;11173;51.050;7.108;2023-03-13T16:26:24;0.40;;;0.40;;
22017;SDS011;11173;51.050;7.108;2023-03-13T16:36:34;1.48;;;0.47;;
22017;SDS011;11173;51.050;7.108;2023-03-13T16:46:36;1.75;;;0.60;;
22017;SDS011;11173;51.050;7.108;2023-03-13T16:56:38;2.20;;;0.63;;
22017;SDS011;11173;51.050;7.108;2023-03-13T17:06:39;2.90;;;0.73;;
22017;SDS011;11173;51.050;7.108;2023-03-13T17:16:41;1.98;;;0.70;;
22017;SDS011;11173;51.050;7.108;2023-03-13T17:26:42;0.47;;;0.47;;
22017;SDS011;11173;51.050;7.108;2023-03-13T17:36:42;1.98;;;0.73;;
22017;SDS011;11173;51.050;7.108;2023-03-13T17:46:45;0.98;;;0.40;;
22017;SDS011;11173;51.050;7.108;2023-03-13T17:56:45;2.63;;;1.00;;
22017;SDS011;11173;51.050;7.108;2023-03-13T18:06:46;0.40;;;0.30;;
22017;SDS011;11173;51.050;7.108;2023-03-13T18:16:47;0.65;;;0.40;;
22017;SDS011;11173;51.050;7.108;2023-03-13T18:26:49;0.32;;;0.32;;
22017;SDS011;11173;51.050;7.108;2023-03-13T18:36:49;0.10;;;0.10;;
22017;SDS011;11173;51.050;7.108;2023-03-13T18:46:50;0.63;;;0.30;;
22017;SDS011;11173;51.050;7.108;2023-03-13T18:56:50;0.30;;;0.30;;
22017;SDS011;11173;51.050;7.108;2023-03-13T19:06:50;0.40;;;0.40;;
22017;SDS011;11173;51.050;7.108;2023-03-13T19:16:52;1.10;;;0.57;;
22017;SDS011;11173;51.050;7.108;2023-03-13T19:26:54;0.20;;;0.20;;
22017;SDS011;11173;51.050;7.108;2023-03-13T19:36:58;0.20;;;0.20;;
22017;SDS011;11173;51.050;7.108;2023-03-13T19:46:58;0.28;;;0.28;;
22017;SDS011;11173;51.050;7.108;2023-03-13T19:56:59;0.52;;;0.52;;
22017;SDS011;11173;51.050;7.108;2023-03-13T20:06:59;0.43;;;0.43;;
22017;SDS011;11173;51.050;7.108;2023-03-13T20:17:01;0.47;;;0.30;;
22017;SDS011;11173;51.050;7.108;2023-03-13T20:27:02;0.35;;;0.35;;
22017;SDS011;11173;51.050;7.108;2023-03-13T20:37:03;0.70;;;0.43;;
22017;SDS011;11173;51.050;7.108;2023-03-13T20:47:03;0.95;;;0.40;;
22017;SDS011;11173;51.050;7.108;2023-03-13T20:57:03;0.20;;;0.20;;
22017;SDS011;11173;51.050;7.108;2023-03-13T21:07:04;0.22;;;0.22;;
22017;SDS011;11173;51.050;7.108;2023-03-13T21:17:04;0.45;;;0.38;;
22017;SDS011;11173;51.050;7.108;2023-03-13T21:27:04;0.45;;;0.30;;
22017;SDS011;11173;51.050;7.108;2023-03-13T21:37:05;0.50;;;0.28;;
22017;SDS011;11173;51.050;7.108;2023-03-13T21:47:05;0.22;;;0.22;;
22017;SDS011;11173;51.050;7.108;2023-03-13T21:57:05;0.30;;;0.30;;
22017;SDS011;11173;51.050;7.108;2023-03-13T22:07:06;0.60;;;0.50;;
22017;SDS011;11173;51.050;7.108;2023-03-13T22:17:06;0.98;;;0.50;;
22017;SDS011;11173;51.050;7.108;2023-03-13T22:27:07;0.70;;;0.30;;
22017;SDS011;11173;51.050;7.108;2023-03-13T22:37:11;0.47;;;0.32;;
22017;SDS011;11173;51.050;7.108;2023-03-13T22:47:12;0.52;;;0.40;;
22017;SDS011;11173;51.050;7.108;2023-03-13T22:57:12;0.30;;;0.25;;
22017;SDS011;11173;51.050;7.108;2023-03-13T23:07:12;0.30;;;0.30;;
22017;SDS011;11173;51.050;7.108;2023-03-13T23:17:12;0.50;;;0.50;;
22017;SDS011;11173;51.050;7.108;2023-03-13T23:27:13;0.50;;;0.30;;
22017;SDS011;11173;51.050;7.108;2023-03-13T23:37:13;0.30;;;0.30;;
22017;SDS011;11173;51.050;7.108;2023-03-13T23:47:13;0.22;;;0.20;;
22017;SDS011;11173;51.050;7.108;2023-03-13T23:57:14;0.63;;;0.30;;
